sensor_id;sensor_type;location;lat;lon;timestamp;pressure;altitude;pressure_sealevel;temperature;humidity
58686;BME280;44465;53.206;-6.106;2023-04-24T00:01:49;100745.47;;;21.99;50.95
58686;BME280;44465;53.206;-6.106;2023-04-24T00:04:15;100749.88;;;22.00;50.80
58686;BME280;44465;53.206;-6.106;2023-04-24T00:06:42;100745.66;;;21.96;50.77
58686;BME280;44465;53.206;-6.106;2023-04-24T00:09:10;100742.13;;;21.96;50.80
58686;BME280;44465;53.206;-6.106;2023-04-24T00:11:36;100742.97;;;21.96;51.07
58686;BME280;44465;53.206;-6.106;2023-04-24T00:14:02;100732.34;;;21.95;51.14
58686;BME280;44465;53.206;-6.106;2023-04-24T00:16:28;100752.56;;;22.00;51.01
58686;BME280;44465;53.206;-6.106;2023-04-24T00:18:54;100738.22;;;22.02;51.03
58686;BME280;44465;53.206;-6.106;2023-04-24T00:21:19;100731.22;;;21.99;51.18
58686;BME280;44465;53.206;-6.106;2023-04-24T00:23:45;100734.75;;;21.99;50.96
58686;BME280;44465;53.206;-6.106;2023-04-24T00:26:11;100736.84;;;21.94;50.79
58686;BME280;44465;53.206;-6.106;2023-04-24T00:28:45;100727.16;;;21.92;50.93
58686;BME280;44465;53.206;-6.106;2023-04-24T00:31:12;100740.28;;;21.96;50.81
58686;BME280;44465;53.206;-6.106;2023-04-24T00:33:37;100735.97;;;21.94;50.82
58686;BME280;44465;53.206;-6.106;2023-04-24T00:36:03;100729.78;;;21.93;50.84
58686;BME280;44465;53.206;-6.106;2023-04-24T00:38:28;100721.13;;;21.88;50.80
58686;BME280;44465;53.206;-6.106;2023-04-24T00:40:54;100724.59;;;21.90;50.87
58686;BME280;44465;53.206;-6.106;2023-04-24T00:43:19;100729.28;;;21.87;50.92
58686;BME280;44465;53.206;-6.106;2023-04-24T00:45:46;100731.84;;;21.88;50.75
58686;BME280;44465;53.206;-6.106;2023-04-24T00:48:11;100732.81;;;21.87;50.82
58686;BME280;44465;53.206;-6.106;2023-04-24T00:50:37;100733.75;;;21.86;50.73
58686;BME280;44465;53.206;-6.106;2023-04-24T00:53:03;100732.13;;;21.83;50.69
58686;BME280;44465;53.206;-6.106;2023-04-24T00:55:28;100722.53;;;21.79;50.92
58686;BME280;44465;53.206;-6.106;2023-04-24T00:57:55;100728.00;;;21.78;50.59
58686;BME280;44465;53.206;-6.106;2023-04-24T01:00:20;100726.09;;;21.80;50.84
58686;BME280;44465;53.206;-6.106;2023-04-24T01:02:48;100729.56;;;21.82;50.44
58686;BME280;44465;53.206;-6.106;2023-04-24T01:05:14;100729.63;;;21.80;50.64
58686;BME280;44465;53.206;-6.106;2023-04-24T01:07:45;100729.72;;;21.79;50.88
58686;BME280;44465;53.206;-6.106;2023-04-24T01:10:11;100729.63;;;21.80;50.96
58686;BME280;44465;53.206;-6.106;2023-04-24T01:12:38;100733.34;;;21.78;50.74
58686;BME280;44465;53.206;-6.106;2023-04-24T01:15:04;100736.03;;;21.78;50.90
58686;BME280;44465;53.206;-6.106;2023-04-24T01:17:31;100730.69;;;21.78;50.66
58686;BME280;44465;53.206;-6.106;2023-04-24T01:19:56;100729.13;;;21.74;50.81
58686;BME280;44465;53.206;-6.106;2023-04-24T01:22:23;100736.22;;;21.75;50.74
58686;BME280;44465;53.206;-6.106;2023-04-24T01:24:48;100738.16;;;21.73;50.57
58686;BME280;44465;53.206;-6.106;2023-04-24T01:27:14;100743.69;;;21.69;50.66
58686;BME280;44465;53.206;-6.106;2023-04-24T01:29:40;100739.16;;;21.70;50.54
58686;BME280;44465;53.206;-6.106;2023-04-24T01:32:06;100745.41;;;21.71;50.65
58686;BME280;44465;53.206;-6.106;2023-04-24T01:34:32;100752.66;;;21.68;50.68
58686;BME280;44465;53.206;-6.106;2023-04-24T01:36:58;100749.13;;;21.68;50.60
58686;BME280;44465;53.206;-6.106;2023-04-24T01:39:23;100743.84;;;21.66;50.57
58686;BME280;44465;53.206;-6.106;2023-04-24T01:41:52;100748.34;;;21.66;50.76
58686;BME280;44465;53.206;-6.106;2023-04-24T01:44:19;100755.34;;;21.68;50.87
58686;BME280;44465;53.206;-6.106;2023-04-24T01:46:44;100758.03;;;21.68;50.48
58686;BME280;44465;53.206;-6.106;2023-04-24T01:49:10;100753.63;;;21.67;50.69
58686;BME280;44465;53.206;-6.106;2023-04-24T01:51:37;100755.63;;;21.64;50.52
58686;BME280;44465;53.206;-6.106;2023-04-24T01:54:04;100758.19;;;21.65;50.77
58686;BME280;44465;53.206;-6.106;2023-04-24T01:56:33;100756.47;;;21.64;50.49
58686;BME280;44465;53.206;-6.106;2023-04-24T01:58:59;100767.13;;;21.66;50.82
58686;BME280;44465;53.206;-6.106;2023-04-24T02:01:25;100763.75;;;21.62;50.80
58686;BME280;44465;53.206;-6.106;2023-04-24T02:03:50;100755.06;;;21.57;50.59
58686;BME280;44465;53.206;-6.106;2023-04-24T02:06:16;100767.38;;;21.61;50.64
58686;BME280;44465;53.206;-6.106;2023-04-24T02:08:42;100754.94;;;21.60;50.63
58686;BME280;44465;53.206;-6.106;2023-04-24T02:11:10;100760.44;;;21.57;50.67
58686;BME280;44465;53.206;-6.106;2023-04-24T02:13:36;100766.59;;;21.59;50.61
58686;BME280;44465;53.206;-6.106;2023-04-24T02:16:01;100760.44;;;21.57;50.68
58686;BME280;44465;53.206;-6.106;2023-04-24T02:18:28;100764.06;;;21.56;50.69
58686;BME280;44465;53.206;-6.106;2023-04-24T02:20:54;100759.59;;;21.57;50.59
58686;BME280;44465;53.206;-6.106;2023-04-24T02:23:19;100762.16;;;21.58;50.79
58686;BME280;44465;53.206;-6.106;2023-04-24T02:25:45;100765.72;;;21.59;50.85
58686;BME280;44465;53.206;-6.106;2023-04-24T02:28:11;100764.00;;;21.58;50.58
58686;BME280;44465;53.206;-6.106;2023-04-24T02:30:36;100775.66;;;21.57;50.63
58686;BME280;44465;53.206;-6.106;2023-04-24T02:33:02;100770.31;;;21.57;50.69
58686;BME280;44465;53.206;-6.106;2023-04-24T02:35:28;100762.34;;;21.55;50.66
58686;BME280;44465;53.206;-6.106;2023-04-24T02:37:53;100765.91;;;21.56;50.67
58686;BME280;44465;53.206;-6.106;2023-04-24T02:40:19;100766.91;;;21.53;50.64
58686;BME280;44465;53.206;-6.106;2023-04-24T02:42:45;100770.56;;;21.52;50.58
58686;BME280;44465;53.206;-6.106;2023-04-24T02:45:11;100781.19;;;21.53;50.70
58686;BME280;44465;53.206;-6.106;2023-04-24T02:47:36;100783.09;;;21.51;50.70
58686;BME280;44465;53.206;-6.106;2023-04-24T02:50:02;100782.13;;;21.52;50.69
58686;BME280;44465;53.206;-6.106;2023-04-24T02:52:28;100785.00;;;21.49;50.58
58686;BME280;44465;53.206;-6.106;2023-04-24T02:54:54;100784.13;;;21.49;50.73
58686;BME280;44465;53.206;-6.106;2023-04-24T02:57:19;100779.03;;;21.44;50.55
58686;BME280;44465;53.206;-6.106;2023-04-24T02:59:45;100779.91;;;21.45;50.42
58686;BME280;44465;53.206;-6.106;2023-04-24T03:02:10;100786.03;;;21.47;50.50
58686;BME280;44465;53.206;-6.106;2023-04-24T03:04:35;100794.84;;;21.49;50.64
58686;BME280;44465;53.206;-6.106;2023-04-24T03:07:01;100790.44;;;21.48;50.27
58686;BME280;44465;53.206;-6.106;2023-04-24T03:09:27;100793.91;;;21.50;50.60
58686;BME280;44465;53.206;-6.106;2023-04-24T03:11:52;100786.91;;;21.47;50.56
58686;BME280;44465;53.206;-6.106;2023-04-24T03:14:18;100793.13;;;21.48;50.55
58686;BME280;44465;53.206;-6.106;2023-04-24T03:16:43;100782.56;;;21.45;50.51
58686;BME280;44465;53.206;-6.106;2023-04-24T03:19:09;100798.47;;;21.48;50.62
58686;BME280;44465;53.206;-6.106;2023-04-24T03:21:42;100795.03;;;21.46;50.49
58686;BME280;44465;53.206;-6.106;2023-04-24T03:24:08;100794.94;;;21.47;50.43
58686;BME280;44465;53.206;-6.106;2023-04-24T03:26:35;100795.19;;;21.43;50.58
58686;BME280;44465;53.206;-6.106;2023-04-24T03:29:16;100791.66;;;21.42;50.36
58686;BME280;44465;53.206;-6.106;2023-04-24T03:31:41;100789.81;;;21.43;50.56
58686;BME280;44465;53.206;-6.106;2023-04-24T03:34:07;100785.72;;;21.37;50.48
58686;BME280;44465;53.206;-6.106;2023-04-24T03:36:33;100792.59;;;21.41;50.63
58686;BME280;44465;53.206;-6.106;2023-04-24T03:38:58;100785.00;;;21.33;50.57
58686;BME280;44465;53.206;-6.106;2023-04-24T03:41:29;100790.97;;;21.38;50.48
58686;BME280;44465;53.206;-6.106;2023-04-24T03:44:10;100792.59;;;21.41;50.60
58686;BME280;44465;53.206;-6.106;2023-04-24T03:46:35;100789.16;;;21.39;50.17
58686;BME280;44465;53.206;-6.106;2023-04-24T03:49:01;100776.78;;;21.36;50.45
58686;BME280;44465;53.206;-6.106;2023-04-24T03:51:31;100781.22;;;21.37;50.50
58686;BME280;44465;53.206;-6.106;2023-04-24T03:54:06;100791.75;;;21.41;50.42
58686;BME280;44465;53.206;-6.106;2023-04-24T03:56:34;100790.88;;;21.40;50.36
58686;BME280;44465;53.206;-6.106;2023-04-24T03:59:00;100788.28;;;21.38;50.47
58686;BME280;44465;53.206;-6.106;2023-04-24T04:01:26;100786.56;;;21.37;50.33
58686;BME280;44465;53.206;-6.106;2023-04-24T04:04:00;100788.47;;;21.35;50.72
58686;BME280;44465;53.206;-6.106;2023-04-24T04:06:26;100791.13;;;21.35;50.46
58686;BME280;44465;53.206;-6.106;2023-04-24T04:08:54;100791.25;;;21.34;50.34
58686;BME280;44465;53.206;-6.106;2023-04-24T04:11:19;100788.63;;;21.32;50.67
58686;BME280;44465;53.206;-6.106;2023-04-24T04:13:45;100794.75;;;21.34;50.50
58686;BME280;44465;53.206;-6.106;2023-04-24T04:16:13;100793.03;;;21.33;50.51
58686;BME280;44465;53.206;-6.106;2023-04-24T04:18:45;100785.00;;;21.33;50.36
58686;BME280;44465;53.206;-6.106;2023-04-24T04:21:11;100790.47;;;21.32;50.48
58686;BME280;44465;53.206;-6.106;2023-04-24T04:23:36;100791.25;;;21.34;50.68
58686;BME280;44465;53.206;-6.106;2023-04-24T04:26:08;100785.09;;;21.32;50.59
58686;BME280;44465;53.206;-6.106;2023-04-24T04:28:49;100783.47;;;21.29;50.59
58686;BME280;44465;53.206;-6.106;2023-04-24T04:31:15;100779.06;;;21.28;50.60
58686;BME280;44465;53.206;-6.106;2023-04-24T04:33:40;100779.84;;;21.30;50.55
58686;BME280;44465;53.206;-6.106;2023-04-24T04:36:08;100782.41;;;21.32;50.19
58686;BME280;44465;53.206;-6.106;2023-04-24T04:38:37;100785.09;;;21.32;50.57
58686;BME280;44465;53.206;-6.106;2023-04-24T04:41:11;100788.63;;;21.32;50.52
58686;BME280;44465;53.206;-6.106;2023-04-24T04:43:36;100788.63;;;21.32;50.44
58686;BME280;44465;53.206;-6.106;2023-04-24T04:46:04;100783.63;;;21.26;50.53
58686;BME280;44465;53.206;-6.106;2023-04-24T04:48:50;100797.91;;;21.27;50.54
58686;BME280;44465;53.206;-6.106;2023-04-24T04:51:15;100806.78;;;21.27;50.47
58686;BME280;44465;53.206;-6.106;2023-04-24T04:53:40;100801.44;;;21.27;50.40
58686;BME280;44465;53.206;-6.106;2023-04-24T04:56:06;100805.94;;;21.27;50.49
58686;BME280;44465;53.206;-6.106;2023-04-24T04:58:44;100815.09;;;21.22;50.63
58686;BME280;44465;53.206;-6.106;2023-04-24T05:01:12;100806.94;;;21.24;50.64
58686;BME280;44465;53.206;-6.106;2023-04-24T05:03:41;100813.88;;;21.28;50.45
58686;BME280;44465;53.206;-6.106;2023-04-24T05:06:09;100819.41;;;21.25;50.55
58686;BME280;44465;53.206;-6.106;2023-04-24T05:08:37;100817.66;;;21.24;50.60
58686;BME280;44465;53.206;-6.106;2023-04-24T05:11:05;100823.03;;;21.24;50.67
58686;BME280;44465;53.206;-6.106;2023-04-24T05:13:31;100829.06;;;21.28;50.38
58686;BME280;44465;53.206;-6.106;2023-04-24T05:15:58;100832.72;;;21.27;50.48
58686;BME280;44465;53.206;-6.106;2023-04-24T05:18:24;100831.16;;;21.22;50.57
58686;BME280;44465;53.206;-6.106;2023-04-24T05:20:50;100831.00;;;21.26;50.74
58686;BME280;44465;53.206;-6.106;2023-04-24T05:23:15;100836.41;;;21.24;50.34
58686;BME280;44465;53.206;-6.106;2023-04-24T05:25:43;100839.09;;;21.24;50.41
58686;BME280;44465;53.206;-6.106;2023-04-24T05:28:11;100841.06;;;21.20;50.51
58686;BME280;44465;53.206;-6.106;2023-04-24T05:30:37;100847.38;;;21.19;50.69
58686;BME280;44465;53.206;-6.106;2023-04-24T05:33:03;100848.16;;;21.21;50.62
58686;BME280;44465;53.206;-6.106;2023-04-24T05:35:30;100851.00;;;21.18;50.60
58686;BME280;44465;53.206;-6.106;2023-04-24T05:37:56;100857.25;;;21.19;50.57
58686;BME280;44465;53.206;-6.106;2023-04-24T05:40:21;100858.97;;;21.20;50.35
58686;BME280;44465;53.206;-6.106;2023-04-24T05:42:47;100850.16;;;21.18;50.41
58686;BME280;44465;53.206;-6.106;2023-04-24T05:45:12;100862.66;;;21.17;50.34
58686;BME280;44465;53.206;-6.106;2023-04-24T05:47:42;100864.31;;;21.20;50.32
58686;BME280;44465;53.206;-6.106;2023-04-24T05:50:10;100876.78;;;21.21;50.35
58686;BME280;44465;53.206;-6.106;2023-04-24T05:52:35;100874.25;;;21.18;50.06
58686;BME280;44465;53.206;-6.106;2023-04-24T05:55:04;100881.25;;;21.20;50.23
58686;BME280;44465;53.206;-6.106;2023-04-24T05:57:33;100881.34;;;21.19;50.24
58686;BME280;44465;53.206;-6.106;2023-04-24T06:00:03;100886.84;;;21.16;50.18
58686;BME280;44465;53.206;-6.106;2023-04-24T06:02:38;100890.03;;;21.06;50.31
58686;BME280;44465;53.206;-6.106;2023-04-24T06:05:05;100878.00;;;20.98;50.34
58686;BME280;44465;53.206;-6.106;2023-04-24T06:07:31;100883.28;;;20.99;50.22
58686;BME280;44465;53.206;-6.106;2023-04-24T06:09:57;100877.31;;;20.94;50.33
58686;BME280;44465;53.206;-6.106;2023-04-24T06:12:23;100920.28;;;21.08;50.29
58686;BME280;44465;53.206;-6.106;2023-04-24T06:14:59;100907.38;;;20.99;50.09
58686;BME280;44465;53.206;-6.106;2023-04-24T06:17:44;100902.19;;;20.96;50.17
58686;BME280;44465;53.206;-6.106;2023-04-24T06:20:10;100914.78;;;20.94;50.20
58686;BME280;44465;53.206;-6.106;2023-04-24T06:22:36;100920.59;;;21.02;49.95
58686;BME280;44465;53.206;-6.106;2023-04-24T06:25:02;100910.38;;;20.93;49.96
58686;BME280;44465;53.206;-6.106;2023-04-24T06:27:28;100941.69;;;21.08;50.10
58686;BME280;44465;53.206;-6.106;2023-04-24T06:29:53;100919.19;;;20.95;49.90
58686;BME280;44465;53.206;-6.106;2023-04-24T06:32:22;100964.66;;;21.13;49.91
58686;BME280;44465;53.206;-6.106;2023-04-24T06:37:13;100962.94;;;21.12;49.97
58686;BME280;44465;53.206;-6.106;2023-04-24T06:39:39;100968.47;;;21.08;50.03
58686;BME280;44465;53.206;-6.106;2023-04-24T06:42:05;100926.63;;;20.90;50.00
58686;BME280;44465;53.206;-6.106;2023-04-24T06:44:33;100968.63;;;21.05;50.15
58686;BME280;44465;53.206;-6.106;2023-04-24T06:47:03;100941.94;;;20.86;50.04
58686;BME280;44465;53.206;-6.106;2023-04-24T06:49:28;100940.00;;;20.90;49.94
58686;BME280;44465;53.206;-6.106;2023-04-24T06:51:54;100952.59;;;20.88;50.09
58686;BME280;44465;53.206;-6.106;2023-04-24T06:54:19;100967.38;;;20.95;49.93
58686;BME280;44465;53.206;-6.106;2023-04-24T06:56:45;100965.66;;;20.94;50.13
58686;BME280;44465;53.206;-6.106;2023-04-24T06:59:12;100993.53;;;21.07;50.06
58686;BME280;44465;53.206;-6.106;2023-04-24T07:01:38;100995.56;;;21.02;49.89
58686;BME280;44465;53.206;-6.106;2023-04-24T07:04:03;101002.50;;;21.06;49.87
58686;BME280;44465;53.206;-6.106;2023-04-24T07:06:29;101010.53;;;21.06;49.96
58686;BME280;44465;53.206;-6.106;2023-04-24T07:08:57;101013.22;;;21.06;49.99
58686;BME280;44465;53.206;-6.106;2023-04-24T07:11:23;101019.59;;;21.04;49.74
58686;BME280;44465;53.206;-6.106;2023-04-24T07:13:48;101017.16;;;20.99;50.00
58686;BME280;44465;53.206;-6.106;2023-04-24T07:16:14;101034.97;;;21.00;50.03
58686;BME280;44465;53.206;-6.106;2023-04-24T07:18:40;101007.22;;;20.84;49.92
58686;BME280;44465;53.206;-6.106;2023-04-24T07:21:05;101013.47;;;20.84;50.00
58686;BME280;44465;53.206;-6.106;2023-04-24T07:23:32;101025.66;;;20.90;49.91
58686;BME280;44465;53.206;-6.106;2023-04-24T07:25:57;101057.09;;;21.04;49.82
58686;BME280;44465;53.206;-6.106;2023-04-24T07:28:23;101049.09;;;21.02;49.88
58686;BME280;44465;53.206;-6.106;2023-04-24T07:30:48;101025.88;;;20.85;49.78
58686;BME280;44465;53.206;-6.106;2023-04-24T07:33:14;101029.44;;;20.86;49.68
58686;BME280;44465;53.206;-6.106;2023-04-24T07:35:39;101049.44;;;20.96;49.81
58686;BME280;44465;53.206;-6.106;2023-04-24T07:38:05;101029.56;;;20.83;49.62
58686;BME280;44465;53.206;-6.106;2023-04-24T07:40:31;101075.72;;;21.05;49.85
58686;BME280;44465;53.206;-6.106;2023-04-24T07:42:56;101068.63;;;21.04;49.78
58686;BME280;44465;53.206;-6.106;2023-04-24T07:45:21;101071.41;;;21.03;49.54
58686;BME280;44465;53.206;-6.106;2023-04-24T07:47:50;101052.25;;;20.93;49.45
58686;BME280;44465;53.206;-6.106;2023-04-24T07:50:15;101073.38;;;20.99;49.41
58686;BME280;44465;53.206;-6.106;2023-04-24T07:52:41;101068.25;;;20.95;49.31
58686;BME280;44465;53.206;-6.106;2023-04-24T07:55:06;101069.13;;;20.95;49.64
58686;BME280;44465;53.206;-6.106;2023-04-24T07:57:32;101072.72;;;20.94;49.69
58686;BME280;44465;53.206;-6.106;2023-04-24T07:59:57;101076.19;;;20.96;49.91
58686;BME280;44465;53.206;-6.106;2023-04-24T08:02:23;101085.19;;;20.95;49.72
58686;BME280;44465;53.206;-6.106;2023-04-24T08:04:54;101077.38;;;20.90;49.54
58686;BME280;44465;53.206;-6.106;2023-04-24T08:07:20;101081.69;;;20.93;49.65
58686;BME280;44465;53.206;-6.106;2023-04-24T08:09:45;101087.72;;;20.98;49.65
58686;BME280;44465;53.206;-6.106;2023-04-24T08:12:11;101086.78;;;20.99;49.65
58686;BME280;44465;53.206;-6.106;2023-04-24T08:14:36;101085.81;;;21.00;49.83
58686;BME280;44465;53.206;-6.106;2023-04-24T08:17:02;101101.72;;;21.03;50.14
58686;BME280;44465;53.206;-6.106;2023-04-24T08:19:28;101095.28;;;21.07;50.17
58686;BME280;44465;53.206;-6.106;2023-04-24T08:21:54;101096.44;;;21.02;50.11
58686;BME280;44465;53.206;-6.106;2023-04-24T08:24:19;101097.16;;;21.05;49.93
58686;BME280;44465;53.206;-6.106;2023-04-24T08:26:45;101094.38;;;21.07;50.12
58686;BME280;44465;53.206;-6.106;2023-04-24T08:29:10;101097.84;;;21.09;50.37
58686;BME280;44465;53.206;-6.106;2023-04-24T08:31:36;101095.28;;;21.07;50.45
58686;BME280;44465;53.206;-6.106;2023-04-24T08:34:01;101102.38;;;21.08;50.34
58686;BME280;44465;53.206;-6.106;2023-04-24T08:36:27;101094.47;;;21.05;50.24
58686;BME280;44465;53.206;-6.106;2023-04-24T08:38:52;101098.88;;;21.06;50.45
58686;BME280;44465;53.206;-6.106;2023-04-24T08:41:18;101104.09;;;21.10;50.36
58686;BME280;44465;53.206;-6.106;2023-04-24T08:43:46;101101.47;;;21.08;50.63
58686;BME280;44465;53.206;-6.106;2023-04-24T08:46:13;101099.69;;;21.08;50.37
58686;BME280;44465;53.206;-6.106;2023-04-24T08:48:39;101105.09;;;21.07;50.54
58686;BME280;44465;53.206;-6.106;2023-04-24T08:51:07;101114.81;;;21.10;50.33
58686;BME280;44465;53.206;-6.106;2023-04-24T08:53:33;101121.91;;;21.11;50.45
58686;BME280;44465;53.206;-6.106;2023-04-24T08:56:00;101125.44;;;21.11;50.48
58686;BME280;44465;53.206;-6.106;2023-04-24T08:58:27;101122.75;;;21.11;50.43
58686;BME280;44465;53.206;-6.106;2023-04-24T09:00:57;101117.53;;;21.08;50.31
58686;BME280;44465;53.206;-6.106;2023-04-24T09:03:23;101099.34;;;20.97;50.52
58686;BME280;44465;53.206;-6.106;2023-04-24T09:05:49;101121.09;;;21.08;50.29
58686;BME280;44465;53.206;-6.106;2023-04-24T09:08:19;101109.19;;;20.97;50.51
58686;BME280;44465;53.206;-6.106;2023-04-24T09:10:45;101121.16;;;21.07;50.61
58686;BME280;44465;53.206;-6.106;2023-04-24T09:13:10;101122.91;;;21.08;50.60
58686;BME280;44465;53.206;-6.106;2023-04-24T09:15:37;101111.25;;;20.91;50.67
58686;BME280;44465;53.206;-6.106;2023-04-24T09:18:04;101130.69;;;21.13;50.24
58686;BME280;44465;53.206;-6.106;2023-04-24T09:20:30;101141.41;;;21.13;50.48
58686;BME280;44465;53.206;-6.106;2023-04-24T09:22:59;101151.13;;;21.15;50.33
58686;BME280;44465;53.206;-6.106;2023-04-24T09:25:31;101150.19;;;21.16;50.62
58686;BME280;44465;53.206;-6.106;2023-04-24T09:28:01;101158.22;;;21.16;50.65
58686;BME280;44465;53.206;-6.106;2023-04-24T09:30:28;101151.03;;;21.17;50.50
58686;BME280;44465;53.206;-6.106;2023-04-24T09:33:15;101151.97;;;21.16;50.39
58686;BME280;44465;53.206;-6.106;2023-04-24T09:35:51;101157.47;;;21.13;50.58
58686;BME280;44465;53.206;-6.106;2023-04-24T09:38:17;101160.09;;;21.14;50.47
58686;BME280;44465;53.206;-6.106;2023-04-24T09:40:42;101173.31;;;21.17;50.45
58686;BME280;44465;53.206;-6.106;2023-04-24T09:43:11;101162.06;;;21.11;50.21
58686;BME280;44465;53.206;-6.106;2023-04-24T09:45:38;101174.19;;;21.18;50.52
58686;BME280;44465;53.206;-6.106;2023-04-24T09:48:05;101173.41;;;21.16;50.52
58686;BME280;44465;53.206;-6.106;2023-04-24T09:50:32;101175.13;;;21.17;50.41
58686;BME280;44465;53.206;-6.106;2023-04-24T09:53:05;101177.03;;;21.15;50.57
58686;BME280;44465;53.206;-6.106;2023-04-24T09:55:39;101189.47;;;21.16;50.40
58686;BME280;44465;53.206;-6.106;2023-04-24T09:58:07;101184.91;;;21.18;50.34
58686;BME280;44465;53.206;-6.106;2023-04-24T10:00:33;101185.72;;;21.20;50.32
58686;BME280;44465;53.206;-6.106;2023-04-24T10:03:03;101189.09;;;21.23;50.21
58686;BME280;44465;53.206;-6.106;2023-04-24T10:05:32;101194.50;;;21.22;50.25
58686;BME280;44465;53.206;-6.106;2023-04-24T10:10:29;101197.03;;;21.25;50.08
58686;BME280;44465;53.206;-6.106;2023-04-24T10:12:55;101205.06;;;21.25;50.13
58686;BME280;44465;53.206;-6.106;2023-04-24T10:15:21;101199.72;;;21.25;49.99
58686;BME280;44465;53.206;-6.106;2023-04-24T10:17:50;101196.09;;;21.26;49.91
58686;BME280;44465;53.206;-6.106;2023-04-24T10:20:20;101201.59;;;21.23;50.06
58686;BME280;44465;53.206;-6.106;2023-04-24T10:22:51;101210.53;;;21.23;49.83
58686;BME280;44465;53.206;-6.106;2023-04-24T10:25:19;101210.44;;;21.25;50.07
58686;BME280;44465;53.206;-6.106;2023-04-24T10:27:46;101206.81;;;21.26;50.05
58686;BME280;44465;53.206;-6.106;2023-04-24T10:30:12;101211.56;;;21.21;49.72
58686;BME280;44465;53.206;-6.106;2023-04-24T10:32:37;101214.28;;;21.19;49.58
58686;BME280;44465;53.206;-6.106;2023-04-24T10:35:03;101210.81;;;21.17;49.58
58686;BME280;44465;53.206;-6.106;2023-04-24T10:37:35;101213.19;;;21.23;49.93
58686;BME280;44465;53.206;-6.106;2023-04-24T10:40:02;101222.88;;;21.26;49.81
58686;BME280;44465;53.206;-6.106;2023-04-24T10:42:28;101220.28;;;21.25;49.89
58686;BME280;44465;53.206;-6.106;2023-04-24T10:44:53;101228.91;;;21.31;49.70
58686;BME280;44465;53.206;-6.106;2023-04-24T10:47:20;101233.47;;;21.29;49.79
58686;BME280;44465;53.206;-6.106;2023-04-24T10:49:46;101236.19;;;21.28;49.91
58686;BME280;44465;53.206;-6.106;2023-04-24T10:52:11;101239.66;;;21.30;50.08
58686;BME280;44465;53.206;-6.106;2023-04-24T10:59:43;101243.84;;;21.35;50.32
58686;BME280;44465;53.206;-6.106;2023-04-24T11:02:09;101236.75;;;21.34;50.46
58686;BME280;44465;53.206;-6.106;2023-04-24T11:04:35;101233.84;;;21.39;50.64
58686;BME280;44465;53.206;-6.106;2023-04-24T11:07:01;101241.84;;;21.41;50.62
58686;BME280;44465;53.206;-6.106;2023-04-24T11:09:28;101251.59;;;21.42;50.69
58686;BME280;44465;53.206;-6.106;2023-04-24T11:12:09;101249.88;;;21.41;50.73
58686;BME280;44465;53.206;-6.106;2023-04-24T11:15:00;101256.75;;;21.46;50.35
58686;BME280;44465;53.206;-6.106;2023-04-24T11:17:38;101260.28;;;21.47;50.66
58686;BME280;44465;53.206;-6.106;2023-04-24T11:20:07;101256.09;;;21.41;50.57
58686;BME280;44465;53.206;-6.106;2023-04-24T11:22:35;101268.31;;;21.47;50.35
58686;BME280;44465;53.206;-6.106;2023-04-24T11:25:02;101271.00;;;21.47;50.50
58686;BME280;44465;53.206;-6.106;2023-04-24T11:27:31;101277.06;;;21.50;50.39
58686;BME280;44465;53.206;-6.106;2023-04-24T11:35:00;101280.44;;;21.54;50.34
58686;BME280;44465;53.206;-6.106;2023-04-24T11:37:29;101281.25;;;21.56;50.25
58686;BME280;44465;53.206;-6.106;2023-04-24T11:39:58;101291.03;;;21.57;50.35
58686;BME280;44465;53.206;-6.106;2023-04-24T11:42:24;101285.59;;;21.59;50.28
58686;BME280;44465;53.206;-6.106;2023-04-24T11:44:54;101290.81;;;21.62;50.22
58686;BME280;44465;53.206;-6.106;2023-04-24T11:47:31;101297.69;;;21.67;50.15
58686;BME280;44465;53.206;-6.106;2023-04-24T11:49:59;101297.69;;;21.67;50.18
58686;BME280;44465;53.206;-6.106;2023-04-24T11:52:26;101306.66;;;21.66;50.01
58686;BME280;44465;53.206;-6.106;2023-04-24T11:54:52;101304.06;;;21.65;49.99
58686;BME280;44465;53.206;-6.106;2023-04-24T11:57:21;101305.03;;;21.64;49.98
58686;BME280;44465;53.206;-6.106;2023-04-24T11:59:48;101303.38;;;21.61;50.26
58686;BME280;44465;53.206;-6.106;2023-04-24T12:02:21;101296.09;;;21.63;49.89
58686;BME280;44465;53.206;-6.106;2023-04-24T12:04:47;101299.66;;;21.64;49.96
58686;BME280;44465;53.206;-6.106;2023-04-24T12:07:12;101306.66;;;21.66;49.94
58686;BME280;44465;53.206;-6.106;2023-04-24T12:09:58;101310.16;;;21.68;49.68
58686;BME280;44465;53.206;-6.106;2023-04-24T12:12:26;101314.66;;;21.68;49.64
58686;BME280;44465;53.206;-6.106;2023-04-24T12:14:57;101320.72;;;21.72;49.71
58686;BME280;44465;53.206;-6.106;2023-04-24T12:17:29;101323.22;;;21.75;49.64
58686;BME280;44465;53.206;-6.106;2023-04-24T12:20:01;101326.00;;;21.73;49.32
58686;BME280;44465;53.206;-6.106;2023-04-24T12:22:27;101326.94;;;21.72;49.66
58686;BME280;44465;53.206;-6.106;2023-04-24T12:25:03;101317.41;;;21.66;49.43
58686;BME280;44465;53.206;-6.106;2023-04-24T12:27:33;101330.09;;;21.63;49.78
58686;BME280;44465;53.206;-6.106;2023-04-24T12:30:00;101318.19;;;21.68;49.55
58686;BME280;44465;53.206;-6.106;2023-04-24T12:32:26;101326.84;;;21.74;49.37
58686;BME280;44465;53.206;-6.106;2023-04-24T12:34:53;101326.09;;;21.72;49.62
58686;BME280;44465;53.206;-6.106;2023-04-24T12:37:18;101335.13;;;21.69;49.60
58686;BME280;44465;53.206;-6.106;2023-04-24T12:42:30;101339.41;;;21.73;49.48
58686;BME280;44465;53.206;-6.106;2023-04-24T12:44:57;101356.19;;;21.77;49.54
58686;BME280;44465;53.206;-6.106;2023-04-24T12:47:24;101346.50;;;21.74;49.51
58686;BME280;44465;53.206;-6.106;2023-04-24T12:49:50;101354.47;;;21.76;49.55
58686;BME280;44465;53.206;-6.106;2023-04-24T12:52:18;101359.69;;;21.79;49.29
58686;BME280;44465;53.206;-6.106;2023-04-24T12:54:45;101365.50;;;21.69;49.52
58686;BME280;44465;53.206;-6.106;2023-04-24T12:57:10;101359.81;;;21.76;49.49
58686;BME280;44465;53.206;-6.106;2023-04-24T12:59:36;101362.28;;;21.80;49.34